Time;durP1;ratioP1;P1;durP2;ratioP2;P2;SDS_P1;SDS_P2;PMS_P1;PMS_P2;Temp;Humidity;BMP_temperature;BMP_pressure;BME280_temperature;BME280_humidity;BME280_pressure;Samples;Min_cycle;Max_cycle;Signal;HPM_P1;HPM_P2
2021/05/03 00:09:04;;;;;;;10.3;7.9;;;;;;;6.22;100;98353.08;;;;
2021/05/03 00:19:02;;;;;;;10;6;;;;;;;6.2;100;98373.98;;;;
2021/05/03 00:29:01;;;;;;;11.9;8;;;;;;;6.24;100;98386.52;;;;
2021/05/03 00:38:59;;;;;;;9.8;6.8;;;;;;;6.32;100;98393.11;;;;
2021/05/03 00:48:57;;;;;;;8.5;7.6;;;;;;;6.16;100;98383.66;;;;
2021/05/03 00:58:55;;;;;;;13;7.7;;;;;;;6.19;100;98388.44;;;;
2021/05/03 01:08:54;;;;;;;12.3;9;;;;;;;6.09;100;98397.37;;;;
2021/05/03 01:18:52;;;;;;;12.4;9.1;;;;;;;5.89;100;98406.39;;;;
2021/05/03 01:28:50;;;;;;;15.6;11.9;;;;;;;5.81;100;98406.16;;;;
2021/05/03 01:38:49;;;;;;;10.3;7.9;;;;;;;5.81;100;98414.17;;;;
2021/05/03 01:48:47;;;;;;;9.7;6.6;;;;;;;5.76;100;98416.91;;;;
2021/05/03 01:58:45;;;;;;;9.7;7.9;;;;;;;5.73;100;98412.89;;;;
2021/05/03 02:08:43;;;;;;;8.9;7.4;;;;;;;5.74;100;98413.7;;;;
2021/05/03 02:18:42;;;;;;;11.4;8.3;;;;;;;5.71;100;98408.91;;;;
2021/05/03 02:28:40;;;;;;;21.6;9.7;;;;;;;5.78;100;98414.73;;;;
2021/05/03 02:38:38;;;;;;;10.5;7.6;;;;;;;5.71;100;98431.11;;;;
2021/05/03 02:48:38;;;;;;;10.9;8.4;;;;;;;5.75;100;98445.52;;;;
2021/05/03 02:58:35;;;;;;;12.3;9;;;;;;;5.76;100;98468.48;;;;
2021/05/03 03:08:34;;;;;;;7.6;6.8;;;;;;;5.72;100;98459.45;;;;
2021/05/03 03:18:31;;;;;;;10.2;8.5;;;;;;;5.69;100;98484.08;;;;
2021/05/03 03:28:29;;;;;;;8;7.1;;;;;;;5.72;100;98485.38;;;;
2021/05/03 03:38:28;;;;;;;9.7;6.6;;;;;;;5.76;100;98499.8;;;;
2021/05/03 03:48:26;;;;;;;11.8;7.7;;;;;;;5.81;100;98521.95;;;;
2021/05/03 03:58:24;;;;;;;10.4;5.9;;;;;;;5.83;100;98535.83;;;;
2021/05/03 04:08:26;;;;;;;11.2;6;;;;;;;5.88;100;98546.53;;;;
2021/05/03 04:28:19;;;;;;;8;5.3;;;;;;;6.08;100;98554.41;;;;
2021/05/03 04:38:17;;;;;;;8.2;6.9;;;;;;;6.21;100;98546.84;;;;
2021/05/03 04:48:16;;;;;;;9.5;8.1;;;;;;;6.3;100;98555.86;;;;
2021/05/03 04:58:14;;;;;;;11.1;9;;;;;;;6.41;100;98555.5;;;;
2021/05/03 05:08:13;;;;;;;11.2;8.5;;;;;;;6.76;100;98572.32;;;;
2021/05/03 05:18:11;;;;;;;8.8;5.4;;;;;;;7.12;100;98580.77;;;;
2021/05/03 05:28:09;;;;;;;8.1;5.8;;;;;;;7.22;100;98597.55;;;;
2021/05/03 05:38:08;;;;;;;7.9;5;;;;;;;7.17;100;98611.02;;;;
2021/05/03 05:48:06;;;;;;;8.3;5.1;;;;;;;7.23;100;98601.03;;;;
2021/05/03 05:58:04;;;;;;;3.4;2.1;;;;;;;7.42;100;98610.73;;;;
2021/05/03 06:08:03;;;;;;;5.6;2.6;;;;;;;7.3;100;98623.73;;;;
2021/05/03 06:18:03;;;;;;;5.1;3.1;;;;;;;7.1;100;98650.75;;;;
2021/05/03 06:28:00;;;;;;;6.4;4.2;;;;;;;6.63;100;98629.99;;;;
2021/05/03 06:37:58;;;;;;;6.7;3.3;;;;;;;6.79;100;98649.43;;;;
2021/05/03 06:47:56;;;;;;;6;3;;;;;;;6.74;100;98650.27;;;;
2021/05/03 06:57:55;;;;;;;5;3.2;;;;;;;6.49;100;98674.58;;;;
2021/05/03 07:07:53;;;;;;;6;3.3;;;;;;;6.84;100;98660.09;;;;
2021/05/03 07:17:52;;;;;;;4.2;2.7;;;;;;;7.71;100;98677.7;;;;
2021/05/03 07:27:50;;;;;;;8.2;5.1;;;;;;;7.11;100;98695.23;;;;
2021/05/03 07:37:49;;;;;;;7.2;3.5;;;;;;;7.26;100;98710.36;;;;
2021/05/03 07:47:47;;;;;;;6;3.2;;;;;;;7.51;100;98723.52;;;;
2021/05/03 07:57:46;;;;;;;7.3;4.4;;;;;;;7.6;100;98722.61;;;;
2021/05/03 08:07:44;;;;;;;10;6.8;;;;;;;7.75;100;98743.11;;;;
2021/05/03 08:17:44;;;;;;;14.4;9.6;;;;;;;7.48;100;98754.39;;;;
2021/05/03 08:27:42;;;;;;;10;7;;;;;;;7.65;100;98759.31;;;;
2021/05/03 08:37:41;;;;;;;9.5;5.6;;;;;;;7.9;100;98775.16;;;;
2021/05/03 08:47:41;;;;;;;9.5;6.8;;;;;;;8.09;100;98775.19;;;;
2021/05/03 08:57:39;;;;;;;6.5;4.6;;;;;;;8.97;100;98766.52;;;;
2021/05/03 09:07:48;;;;;;;3.2;2.2;;;;;;;8.57;97.8877;98779.44;;;;
2021/05/03 09:17:35;;;;;;;5.3;2.7;;;;;;;8.68;94.67188;98773.95;;;;
2021/05/03 09:27:34;;;;;;;3.4;1.7;;;;;;;9.33;90.69238;98769.45;;;;
2021/05/03 09:37:34;;;;;;;4.1;2.1;;;;;;;9.74;84.59277;98783.79;;;;
2021/05/03 09:47:31;;;;;;;3.5;2.2;;;;;;;9.33;81.51465;98790.97;;;;
2021/05/03 09:57:30;;;;;;;2.8;2.2;;;;;;;10.3;83.44043;98793.53;;;;
2021/05/03 10:07:30;;;;;;;2.8;1.6;;;;;;;10.35;83.27051;98788.02;;;;
2021/05/03 10:17:28;;;;;;;3.1;1.9;;;;;;;9.4;81.87695;98794.08;;;;
2021/05/03 10:27:26;;;;;;;3.1;1.6;;;;;;;9.7;77.3418;98790.05;;;;
2021/05/03 10:37:25;;;;;;;4.3;1.6;;;;;;;9.94;79.52441;98796.07;;;;
2021/05/03 10:47:24;;;;;;;5.4;2.4;;;;;;;10.66;80.10645;98826.7;;;;
2021/05/03 10:57:23;;;;;;;4.6;2.2;;;;;;;10.63;74.2002;98819.23;;;;
2021/05/03 11:07:22;;;;;;;3.6;1.9;;;;;;;10.39;74.45313;98792.52;;;;
2021/05/03 11:17:21;;;;;;;3.3;1.6;;;;;;;10.65;77.55664;98798.18;;;;
2021/05/03 11:27:26;;;;;;;6.5;3.1;;;;;;;11.18;74.14648;98786.72;;;;
2021/05/03 11:37:27;;;;;;;3.6;1.7;;;;;;;12;74.4209;98796;;;;
2021/05/03 11:47:18;;;;;;;5;2.7;;;;;;;11.32;70.96582;98809.03;;;;
2021/05/03 11:57:17;;;;;;;6.5;2.7;;;;;;;9.93;74.28418;98830.27;;;;
2021/05/03 12:07:16;;;;;;;8.9;4.3;;;;;;;9.95;80.44824;98852.33;;;;
2021/05/03 12:17:15;;;;;;;8.4;4.4;;;;;;;9.98;89.32227;98837.47;;;;
2021/05/03 12:27:14;;;;;;;7.1;3.5;;;;;;;10.44;88.99023;98821.27;;;;
2021/05/03 12:37:12;;;;;;;6;3.3;;;;;;;10.77;85.30762;98808.42;;;;
2021/05/03 12:47:12;;;;;;;5.2;2.5;;;;;;;10.99;82.69336;98800.38;;;;
2021/05/03 12:57:15;;;;;;;5.8;3.2;;;;;;;10.83;74.73145;98821.48;;;;
2021/05/03 13:37:07;;;;;;;7.3;3;;;;;;;10.67;75.70801;98798.66;;;;
2021/05/03 13:47:05;;;;;;;7.3;1.7;;;;;;;11.48;70.1875;98804.88;;;;
2021/05/03 13:57:04;;;;;;;8.1;3.8;;;;;;;11.6;70.27637;98781.61;;;;
2021/05/03 14:07:03;;;;;;;5.7;3.1;;;;;;;11.68;65.63867;98787.37;;;;
2021/05/03 14:17:06;;;;;;;3.7;2.3;;;;;;;11.72;65.14648;98794.58;;;;
2021/05/03 14:27:03;;;;;;;6.8;3;;;;;;;12.46;64.26563;98797.43;;;;
2021/05/03 14:37:01;;;;;;;13.1;7.5;;;;;;;12.49;60.05957;98792.19;;;;
2021/05/03 14:47:02;;;;;;;6.2;3.5;;;;;;;10.84;61.26172;98789.93;;;;
2021/05/03 14:57:00;;;;;;;11.1;5.3;;;;;;;10.71;63.38574;98796.16;;;;
2021/05/03 15:07:01;;;;;;;7.8;4;;;;;;;10.24;64.4043;98798.2;;;;
2021/05/03 15:17:06;;;;;;;4.7;2.8;;;;;;;10.13;65.71094;98779.84;;;;
2021/05/03 15:27:03;;;;;;;17.6;4.6;;;;;;;10.88;62.11816;98772.05;;;;
2021/05/03 15:36:55;;;;;;;5.1;2.4;;;;;;;10.1;63.19727;98768.55;;;;
2021/05/03 15:46:54;;;;;;;5.2;4;;;;;;;9.95;65.18652;98771.55;;;;
2021/05/03 15:56:53;;;;;;;5.8;3.4;;;;;;;10;63.90527;98784.1;;;;
2021/05/03 16:06:51;;;;;;;6.7;4.4;;;;;;;12.07;59.31836;98774.73;;;;
2021/05/03 16:16:51;;;;;;;5.7;3.2;;;;;;;12.14;56.36621;98792.39;;;;
2021/05/03 16:26:50;;;;;;;6.1;3.3;;;;;;;10.56;61.80176;98790;;;;
2021/05/03 16:36:49;;;;;;;8.9;4;;;;;;;9.83;63.91406;98776.61;;;;
2021/05/03 16:46:48;;;;;;;8.3;4.6;;;;;;;9.26;66.56348;98796.72;;;;
2021/05/03 16:56:47;;;;;;;8.2;4.5;;;;;;;9.22;68.59668;98794.91;;;;
2021/05/03 17:06:46;;;;;;;17.8;9.4;;;;;;;9.57;69.19629;98797.81;;;;
2021/05/03 17:16:45;;;;;;;8.8;6.4;;;;;;;10.6;66.06543;98795.58;;;;
2021/05/03 17:26:43;;;;;;;8.2;3.7;;;;;;;9.58;67.93262;98795.9;;;;
2021/05/03 17:36:42;;;;;;;6.8;4.4;;;;;;;8.84;70.49707;98799.52;;;;
2021/05/03 17:46:41;;;;;;;8.8;5.7;;;;;;;8.05;74.36816;98809.09;;;;
2021/05/03 17:56:40;;;;;;;14.6;7.9;;;;;;;7.42;76.1543;98802.98;;;;
2021/05/03 18:06:40;;;;;;;14.4;9.2;;;;;;;6.79;81.48828;98804.79;;;;
2021/05/03 18:16:37;;;;;;;11.9;9.6;;;;;;;6.38;81.96875;98817.59;;;;
2021/05/03 18:26:35;;;;;;;12.1;7.7;;;;;;;5.9;82.70313;98822.54;;;;
2021/05/03 18:36:34;;;;;;;10.1;6.2;;;;;;;5.5;85.62012;98826.06;;;;
2021/05/03 18:46:32;;;;;;;9.1;8.2;;;;;;;5.45;89.37891;98834.06;;;;
2021/05/03 18:56:30;;;;;;;8.8;7.1;;;;;;;5.67;90.86523;98830.31;;;;
2021/05/03 19:06:29;;;;;;;12.5;8.5;;;;;;;5.79;88.67969;98834.33;;;;
2021/05/03 19:16:27;;;;;;;8.9;6.7;;;;;;;5.87;87.99512;98841.8;;;;
2021/05/03 19:26:25;;;;;;;14.9;10.3;;;;;;;6.02;87.26758;98838.3;;;;
2021/05/03 19:36:24;;;;;;;12.2;7.7;;;;;;;5.92;88.24902;98835.66;;;;
2021/05/03 19:46:23;;;;;;;13.9;9.9;;;;;;;5.88;89.74316;98835.39;;;;
2021/05/03 20:06:19;;;;;;;13.9;10.2;;;;;;;5.57;91.71289;98842.63;;;;
2021/05/03 20:16:17;;;;;;;18;12.3;;;;;;;5.33;93.5791;98841.56;;;;
2021/05/03 20:26:15;;;;;;;21.9;12.9;;;;;;;5.24;94.11426;98845.04;;;;
2021/05/03 20:36:22;;;;;;;18.1;12.9;;;;;;;5.07;94.2207;98855.95;;;;
2021/05/03 20:46:12;;;;;;;14;11.5;;;;;;;4.83;93.30469;98852.97;;;;
2021/05/03 20:56:10;;;;;;;14.7;11.7;;;;;;;4.53;95.28809;98836.88;;;;
2021/05/03 21:06:08;;;;;;;14;10.8;;;;;;;4.46;96.94238;98831.78;;;;
2021/05/03 21:16:07;;;;;;;16.3;12.7;;;;;;;4.38;96.86914;98832.27;;;;
2021/05/03 21:26:05;;;;;;;19.7;12.4;;;;;;;4.35;96.80762;98823.98;;;;
2021/05/03 21:36:03;;;;;;;17.5;11.4;;;;;;;4.23;97.66406;98813.55;;;;
2021/05/03 21:46:01;;;;;;;15.1;10.2;;;;;;;4.25;96.75293;98816.75;;;;
2021/05/03 21:55:59;;;;;;;16.7;10.6;;;;;;;4.21;96.59766;98806.86;;;;
2021/05/03 22:06:00;;;;;;;15.2;9;;;;;;;4.15;97.27051;98807.91;;;;
2021/05/03 22:15:59;;;;;;;10.6;8.6;;;;;;;4.05;97.61426;98817.47;;;;
2021/05/03 22:25:59;;;;;;;11.7;9;;;;;;;4.01;97.17383;98823.58;;;;
2021/05/03 22:35:53;;;;;;;11.5;7.7;;;;;;;3.9;97.10547;98822.72;;;;
2021/05/03 23:25:42;;;;;;;11.1;8.3;;;;;;;3.87;97.41797;98796.58;;;;
2021/05/03 23:35:41;;;;;;;12;7.2;;;;;;;3.98;97.23438;98784.91;;;;
2021/05/03 23:45:41;;;;;;;13.9;8.3;;;;;;;4;96.90625;98785.44;;;;
2021/05/03 23:55:36;;;;;;;14.3;6.1;;;;;;;3.97;96.37012;98780.63;;;;
